Chrisanthi — SX7108 — position and weather

sailwx.info

Track history (hours):
 
Tides and Currents Weather Stations Pressure Air Temp Water Temp Dewpoint Dewpoint Depression Visibility Wind Speed Wind Dir Waves Ship Positions

Chrisanthi

Last reported at 2014-Nov-23 15:33 UTC. Time now 2014-Nov-23 16:56 UTC.
Position N 37°26' E 024°38'.

Length 56 m; draft 3.9 m.

Type: Tanker. MMSI: 237009100.

Date/timePositionNaut miles runAvg speedWind from/ knotsBaromVisibWave heightAir tempDewpointWater temp
2014-Nov-23 15:33N 37°26' E 024°38'1010.1
2014-Nov-23 14:34N 37°19' E 024°48'1010.1
2014-Nov-23 13:33N 37°13' E 024°58'11 9.5
2014-Nov-23 12:21N 37°05' E 025°09'0 0.1
2014-Nov-23 11:24N 37°05' E 025°09'0 0.0
2014-Nov-23 10:32N 37°05' E 025°09'0 0.0
2014-Nov-23 09:33N 37°05' E 025°09'0 0.0
2014-Nov-23 08:33N 37°05' E 025°09'0 0.0
2014-Nov-23 07:33N 37°05' E 025°09'0 0.1
2014-Nov-23 06:32N 37°05' E 025°09'0 0.4
2014-Nov-23 05:32N 37°05' E 025°09'0 0.0
2014-Nov-23 04:20N 37°05' E 025°09'0 0.0
2014-Nov-23 02:32N 37°05' E 025°09'0 0.0
2014-Nov-23 01:20N 37°05' E 025°09'0 0.0
2014-Nov-23 00:31N 37°05' E 025°09'0 0.0
2014-Nov-22 23:28N 37°05' E 025°09'0 0.0
2014-Nov-22 22:31N 37°05' E 025°09'0 0.0
2014-Nov-22 21:28N 37°05' E 025°09'4 4.0
2014-Nov-22 20:33N 37°09' E 025°10'9 8.7
2014-Nov-22 19:34N 37°08' E 025°21'2 1.7
2014-Nov-22 18:33N 37°06' E 025°22'0 0.0
2014-Nov-22 17:33N 37°06' E 025°22'0 0.0
2014-Nov-22 16:34N 37°06' E 025°22'0 0.4
2014-Nov-22 15:34N 37°06' E 025°22'7 7.0
2014-Nov-22 14:33N 36°59' E 025°21'9 8.9
2014-Nov-22 13:33N 36°55' E 025°30'5 4.7
2014-Nov-22 12:34N 36°56' E 025°36'5 4.8
2014-Nov-22 11:33N 36°59' E 025°41'9 9.0
2014-Nov-22 10:34N 37°06' E 025°48'0 0.1
2014-Nov-22 09:33N 37°06' E 025°48'3 3.3
2014-Nov-22 08:33N 37°03' E 025°45'10 9.6
2014-Nov-22 07:33N 36°56' E 025°38'1 1.2
2014-Nov-22 06:31N 36°56' E 025°36'0 0.2
2014-Nov-22 05:34N 36°56' E 025°36'0 0.3
2014-Nov-22 04:31N 36°55' E 025°36'0 0.0
2014-Nov-22 03:34N 36°55' E 025°36'0 0.0
2014-Nov-22 02:31N 36°55' E 025°36'0 0.0
2014-Nov-22 01:34N 36°55' E 025°36'0 0.0
2014-Nov-22 00:31N 36°55' E 025°36'0 0.0
2014-Nov-21 23:34N 36°55' E 025°36'0 0.0
2014-Nov-21 22:31N 36°55' E 025°36'0 0.0
2014-Nov-21 21:31N 36°55' E 025°36'0 0.2
2014-Nov-21 20:33N 36°56' E 025°36'9 8.7
2014-Nov-21 19:33N 36°52' E 025°26'10 9.9
2014-Nov-21 18:33N 36°48' E 025°15'4 4.4
2014-Nov-21 17:33N 36°43' E 025°16'0 0.0
2014-Nov-21 16:33N 36°43' E 025°16'3 2.6
2014-Nov-21 15:33N 36°41' E 025°16'10 9.8
2014-Nov-21 14:33N 36°31' E 025°19'10 9.6
2014-Nov-21 13:33N 36°23' E 025°26'0 0.2
2014-Nov-21 12:33N 36°23' E 025°26'0 0.0
2014-Nov-21 11:33N 36°23' E 025°26'2 2.1
2014-Nov-21 10:33N 36°25' E 025°24'8 7.6
2014-Nov-21 09:33N 36°32' E 025°27'1010.2
2014-Nov-21 08:33N 36°38' E 025°38'1010.4
2014-Nov-21 07:33N 36°42' E 025°49'1010.3
2014-Nov-21 06:33N 36°48' E 026°01'  
2014-Nov-16 17:33N 37°05' E 026°17'1010.4
2014-Nov-16 16:33N 37°07' E 026°04'1110.1
2014-Nov-16 15:28N 37°09' E 025°51'1010.2
2014-Nov-16 14:31N 37°11' E 025°39'1010.1
2014-Nov-16 13:33N 37°14' E 025°27'10 9.9
2014-Nov-16 12:33N 37°17' E 025°15'10 9.5
2014-Nov-16 11:33N 37°19' E 025°03'10 9.9
2014-Nov-16 10:33N 37°21' E 024°51'1010.0
2014-Nov-16 09:33N 37°25' E 024°40'1010.3
2014-Nov-16 08:33N 37°29' E 024°28'12 9.6
2014-Nov-16 07:17N 37°31' E 024°13'2110.2
2014-Nov-16 05:13N 37°38' E 023°47'6 9.6
2014-Nov-16 04:33N 37°42' E 023°41'10 9.7
2014-Nov-16 03:33N 37°50' E 023°33'1010.2
2014-Nov-16 02:33N 37°52' E 023°21'1210.3
2014-Nov-16 01:26N 37°55' E 023°06'14 1.0
2014-Nov-15 11:33N 37°51' E 023°24'1010.2
2014-Nov-15 10:33N 37°51' E 023°37'10 9.6
2014-Nov-15 09:33N 37°43' E 023°44'20 9.6
2014-Nov-15 07:31N 37°38' E 024°08'1111.0
2014-Nov-15 06:33N 37°45' E 024°18'1110.9
2014-Nov-15 05:32N 37°52' E 024°28'35 1.9
2014-Nov-14 11:28N 37°26' E 024°57'1 0.9
2014-Nov-14 10:33N 37°26' E 024°56'0 0.0
2014-Nov-14 09:29N 37°26' E 024°56'0 0.0
2014-Nov-14 08:32N 37°26' E 024°56'0 0.0
2014-Nov-14 07:26N 37°26' E 024°56'0 0.0
2014-Nov-14 06:32N 37°26' E 024°56'0 0.0
2014-Nov-14 05:20N 37°26' E 024°56'0 0.0
2014-Nov-14 04:27N 37°26' E 024°56'0 0.0
2014-Nov-14 03:32N 37°26' E 024°56'0 0.0
2014-Nov-14 02:25N 37°26' E 024°56'0 0.0
2014-Nov-14 01:33N 37°26' E 024°56'0 0.0
2014-Nov-14 00:32N 37°26' E 024°56'0 0.0
2014-Nov-13 23:33N 37°26' E 024°56'0 0.0
2014-Nov-13 22:25N 37°26' E 024°56'0 0.0
2014-Nov-13 21:30N 37°26' E 024°56'0 0.0
2014-Nov-13 20:30N 37°26' E 024°56'2 2.1
2014-Nov-13 19:30N 37°25' E 024°58'1010.4
2014-Nov-13 18:33N 37°15' E 025°03'  
Track history (hours):
 
Tides and Currents Weather Stations Pressure Air Temp Water Temp Dewpoint Dewpoint Depression Visibility Wind Speed Wind Dir Waves Ship Positions

Chrisanthi

Last reported at 2014-Nov-23 15:33 UTC. Time now 2014-Nov-23 16:56 UTC.
Position N 37°26' E 024°38'.

Length 56 m; draft 3.9 m.

Type: Tanker. MMSI: 237009100.

Date/timePositionNaut miles runAvg speedWind from/ knotsBaromVisibWave heightAir tempDewpointWater temp
2014-Nov-23 15:33N 37°26' E 024°38'1010.1
2014-Nov-23 14:34N 37°19' E 024°48'1010.1
2014-Nov-23 13:33N 37°13' E 024°58'11 9.5
2014-Nov-23 12:21N 37°05' E 025°09'0 0.1
2014-Nov-23 11:24N 37°05' E 025°09'0 0.0
2014-Nov-23 10:32N 37°05' E 025°09'0 0.0
2014-Nov-23 09:33N 37°05' E 025°09'0 0.0
2014-Nov-23 08:33N 37°05' E 025°09'0 0.0
2014-Nov-23 07:33N 37°05' E 025°09'0 0.1
2014-Nov-23 06:32N 37°05' E 025°09'0 0.4
2014-Nov-23 05:32N 37°05' E 025°09'0 0.0
2014-Nov-23 04:20N 37°05' E 025°09'0 0.0
2014-Nov-23 02:32N 37°05' E 025°09'0 0.0
2014-Nov-23 01:20N 37°05' E 025°09'0 0.0
2014-Nov-23 00:31N 37°05' E 025°09'0 0.0
2014-Nov-22 23:28N 37°05' E 025°09'0 0.0
2014-Nov-22 22:31N 37°05' E 025°09'0 0.0
2014-Nov-22 21:28N 37°05' E 025°09'4 4.0
2014-Nov-22 20:33N 37°09' E 025°10'9 8.7
2014-Nov-22 19:34N 37°08' E 025°21'2 1.7
2014-Nov-22 18:33N 37°06' E 025°22'0 0.0
2014-Nov-22 17:33N 37°06' E 025°22'0 0.0
2014-Nov-22 16:34N 37°06' E 025°22'0 0.4
2014-Nov-22 15:34N 37°06' E 025°22'7 7.0
2014-Nov-22 14:33N 36°59' E 025°21'9 8.9
2014-Nov-22 13:33N 36°55' E 025°30'5 4.7
2014-Nov-22 12:34N 36°56' E 025°36'5 4.8
2014-Nov-22 11:33N 36°59' E 025°41'9 9.0
2014-Nov-22 10:34N 37°06' E 025°48'0 0.1
2014-Nov-22 09:33N 37°06' E 025°48'3 3.3
2014-Nov-22 08:33N 37°03' E 025°45'10 9.6
2014-Nov-22 07:33N 36°56' E 025°38'1 1.2
2014-Nov-22 06:31N 36°56' E 025°36'0 0.2
2014-Nov-22 05:34N 36°56' E 025°36'0 0.3
2014-Nov-22 04:31N 36°55' E 025°36'0 0.0
2014-Nov-22 03:34N 36°55' E 025°36'0 0.0
2014-Nov-22 02:31N 36°55' E 025°36'0 0.0
2014-Nov-22 01:34N 36°55' E 025°36'0 0.0
2014-Nov-22 00:31N 36°55' E 025°36'0 0.0
2014-Nov-21 23:34N 36°55' E 025°36'0 0.0
2014-Nov-21 22:31N 36°55' E 025°36'0 0.0
2014-Nov-21 21:31N 36°55' E 025°36'0 0.2
2014-Nov-21 20:33N 36°56' E 025°36'9 8.7
2014-Nov-21 19:33N 36°52' E 025°26'10 9.9
2014-Nov-21 18:33N 36°48' E 025°15'4 4.4
2014-Nov-21 17:33N 36°43' E 025°16'0 0.0
2014-Nov-21 16:33N 36°43' E 025°16'3 2.6
2014-Nov-21 15:33N 36°41' E 025°16'10 9.8
2014-Nov-21 14:33N 36°31' E 025°19'10 9.6
2014-Nov-21 13:33N 36°23' E 025°26'0 0.2
2014-Nov-21 12:33N 36°23' E 025°26'0 0.0
2014-Nov-21 11:33N 36°23' E 025°26'2 2.1
2014-Nov-21 10:33N 36°25' E 025°24'8 7.6
2014-Nov-21 09:33N 36°32' E 025°27'1010.2
2014-Nov-21 08:33N 36°38' E 025°38'1010.4
2014-Nov-21 07:33N 36°42' E 025°49'1010.3
2014-Nov-21 06:33N 36°48' E 026°01'  
2014-Nov-16 17:33N 37°05' E 026°17'1010.4
2014-Nov-16 16:33N 37°07' E 026°04'1110.1
2014-Nov-16 15:28N 37°09' E 025°51'1010.2
2014-Nov-16 14:31N 37°11' E 025°39'1010.1
2014-Nov-16 13:33N 37°14' E 025°27'10 9.9
2014-Nov-16 12:33N 37°17' E 025°15'10 9.5
2014-Nov-16 11:33N 37°19' E 025°03'10 9.9
2014-Nov-16 10:33N 37°21' E 024°51'1010.0
2014-Nov-16 09:33N 37°25' E 024°40'1010.3
2014-Nov-16 08:33N 37°29' E 024°28'12 9.6
2014-Nov-16 07:17N 37°31' E 024°13'2110.2
2014-Nov-16 05:13N 37°38' E 023°47'6 9.6
2014-Nov-16 04:33N 37°42' E 023°41'10 9.7
2014-Nov-16 03:33N 37°50' E 023°33'1010.2
2014-Nov-16 02:33N 37°52' E 023°21'1210.3
2014-Nov-16 01:26N 37°55' E 023°06'14 1.0
2014-Nov-15 11:33N 37°51' E 023°24'1010.2
2014-Nov-15 10:33N 37°51' E 023°37'10 9.6
2014-Nov-15 09:33N 37°43' E 023°44'20 9.6
2014-Nov-15 07:31N 37°38' E 024°08'1111.0
2014-Nov-15 06:33N 37°45' E 024°18'1110.9
2014-Nov-15 05:32N 37°52' E 024°28'35 1.9
2014-Nov-14 11:28N 37°26' E 024°57'1 0.9
2014-Nov-14 10:33N 37°26' E 024°56'0 0.0
2014-Nov-14 09:29N 37°26' E 024°56'0 0.0
2014-Nov-14 08:32N 37°26' E 024°56'0 0.0
2014-Nov-14 07:26N 37°26' E 024°56'0 0.0
2014-Nov-14 06:32N 37°26' E 024°56'0 0.0
2014-Nov-14 05:20N 37°26' E 024°56'0 0.0
2014-Nov-14 04:27N 37°26' E 024°56'0 0.0
2014-Nov-14 03:32N 37°26' E 024°56'0 0.0
2014-Nov-14 02:25N 37°26' E 024°56'0 0.0
2014-Nov-14 01:33N 37°26' E 024°56'0 0.0
2014-Nov-14 00:32N 37°26' E 024°56'0 0.0
2014-Nov-13 23:33N 37°26' E 024°56'0 0.0
2014-Nov-13 22:25N 37°26' E 024°56'0 0.0
2014-Nov-13 21:30N 37°26' E 024°56'0 0.0
2014-Nov-13 20:30N 37°26' E 024°56'2 2.1
2014-Nov-13 19:30N 37°25' E 024°58'1010.4
2014-Nov-13 18:33N 37°15' E 025°03'  

Dump ship's entire track history